createdAt,value
2019-01-20T00:00:05.548Z,-8.43
2019-01-20T00:01:05.489Z,-8.45
2019-01-20T00:02:05.481Z,-8.52
2019-01-20T00:03:05.469Z,-8.46
2019-01-20T00:04:05.470Z,-8.52
2019-01-20T00:05:05.460Z,-8.45
2019-01-20T00:06:05.513Z,-8.50
2019-01-20T00:07:05.411Z,-8.40
2019-01-20T00:08:05.441Z,-8.39
2019-01-20T00:09:05.393Z,-8.39
2019-01-20T00:10:05.421Z,-8.43
2019-01-20T00:11:05.372Z,-8.39
2019-01-20T00:12:05.424Z,-8.37
2019-01-20T00:13:05.355Z,-8.35
2019-01-20T00:14:05.453Z,-8.35
2019-01-20T00:15:05.343Z,-8.35
2019-01-20T00:16:05.393Z,-8.35
2019-01-20T00:17:05.314Z,-8.45
2019-01-20T00:18:05.297Z,-8.43
2019-01-20T00:19:05.295Z,-8.47
2019-01-20T00:20:05.415Z,-8.35
2019-01-20T00:21:05.276Z,-8.40
2019-01-20T00:22:05.301Z,-8.35
2019-01-20T00:23:05.267Z,-8.43
2019-01-20T00:24:05.238Z,-8.43
2019-01-20T00:25:05.365Z,-8.39
2019-01-20T00:26:05.218Z,-8.42
2019-01-20T00:27:05.246Z,-8.45
2019-01-20T00:28:05.308Z,-8.56
2019-01-20T00:29:06.782Z,-8.61
2019-01-20T00:30:05.288Z,-8.53
2019-01-20T00:31:05.170Z,-8.47
2019-01-20T00:32:05.171Z,-8.63
2019-01-20T00:33:05.138Z,-8.53
2019-01-20T00:34:05.132Z,-8.61
2019-01-20T00:35:05.220Z,-8.64
2019-01-20T00:36:05.111Z,-8.61
2019-01-20T00:37:05.113Z,-8.55
2019-01-20T00:38:05.079Z,-8.63
2019-01-20T00:39:05.067Z,-8.60
2019-01-20T00:40:05.060Z,-8.61
2019-01-20T00:41:05.130Z,-8.64
2019-01-20T00:42:05.031Z,-8.70
2019-01-20T00:43:05.132Z,-8.70
2019-01-20T00:44:05.083Z,-8.70
2019-01-20T00:45:05.002Z,-8.66
2019-01-20T00:46:05.065Z,-8.70
2019-01-20T00:47:05.005Z,-8.74
2019-01-20T00:48:05.073Z,-8.61
2019-01-20T00:49:04.963Z,-8.76
2019-01-20T00:50:05.004Z,-8.70
2019-01-20T00:51:04.963Z,-8.81
2019-01-20T00:52:05.035Z,-8.70
2019-01-20T00:53:04.924Z,-8.68
2019-01-20T00:54:04.967Z,-8.70
2019-01-20T00:55:04.904Z,-8.74
2019-01-20T00:56:04.955Z,-8.70
2019-01-20T00:57:04.885Z,-8.64
2019-01-20T00:58:04.935Z,-8.70
2019-01-20T00:59:04.867Z,-8.79
2019-01-20T01:00:04.868Z,-8.78
2019-01-20T01:01:04.896Z,-8.78
2019-01-20T01:02:04.826Z,-8.84
2019-01-20T01:03:04.877Z,-8.74
2019-01-20T01:04:04.807Z,-8.71
2019-01-20T01:05:04.798Z,-8.81
2019-01-20T01:06:04.818Z,-8.79
2019-01-20T01:07:04.769Z,-8.78
2019-01-20T01:08:04.818Z,-8.82
2019-01-20T01:09:04.769Z,-8.78
2019-01-20T01:10:04.729Z,-8.76
2019-01-20T01:11:04.739Z,-8.81
2019-01-20T01:12:04.789Z,-8.82
2019-01-20T01:13:04.700Z,-8.84
2019-01-20T01:14:04.721Z,-8.86
2019-01-20T01:15:04.680Z,-8.89
2019-01-20T01:16:04.701Z,-8.89
2019-01-20T01:17:04.661Z,-8.92
2019-01-20T01:18:04.691Z,-8.96
2019-01-20T01:19:04.631Z,-8.89
2019-01-20T01:20:04.725Z,-8.88
2019-01-20T01:21:04.643Z,-8.97
2019-01-20T01:22:04.672Z,-8.88
2019-01-20T01:23:04.604Z,-9.02
2019-01-20T01:24:04.708Z,-8.99
2019-01-20T01:25:04.583Z,-9.03
2019-01-20T01:26:04.583Z,-9.02
2019-01-20T01:27:04.603Z,-9.02
2019-01-20T01:28:04.554Z,-9.02
2019-01-20T01:29:04.646Z,-8.99
2019-01-20T01:30:04.526Z,-9.00
2019-01-20T01:31:04.546Z,-9.03
2019-01-20T01:32:04.506Z,-9.07
2019-01-20T01:33:05.535Z,-9.10
2019-01-20T01:34:04.489Z,-9.07
2019-01-20T01:35:05.581Z,-9.09
2019-01-20T01:36:04.477Z,-9.12
2019-01-20T01:37:04.489Z,-9.12
2019-01-20T01:38:04.441Z,-9.24
2019-01-20T01:39:04.517Z,-9.26
2019-01-20T01:40:04.417Z,-9.27
2019-01-20T01:41:04.497Z,-9.17
2019-01-20T01:42:04.388Z,-9.24
2019-01-20T01:43:05.409Z,-9.17
2019-01-20T01:44:04.369Z,-9.28
2019-01-20T01:45:04.429Z,-9.16
2019-01-20T01:46:04.381Z,-9.21
2019-01-20T01:47:04.339Z,-9.21
2019-01-20T01:48:04.319Z,-9.12
2019-01-20T01:49:04.400Z,-9.24
2019-01-20T01:50:04.300Z,-9.09
2019-01-20T01:51:05.401Z,-9.12
2019-01-20T01:52:04.411Z,-9.10
2019-01-20T01:53:04.271Z,-9.16
2019-01-20T01:54:04.342Z,-9.24
2019-01-20T01:55:04.262Z,-9.18
2019-01-20T01:56:05.353Z,-9.31
2019-01-20T01:57:04.233Z,-9.28
2019-01-20T01:58:04.313Z,-9.30
2019-01-20T01:59:04.214Z,-9.21
2019-01-20T02:00:04.243Z,-9.26
2019-01-20T02:01:04.214Z,-9.23
2019-01-20T02:02:04.283Z,-9.27
2019-01-20T02:03:04.174Z,-9.27
2019-01-20T02:04:04.215Z,-9.20
2019-01-20T02:05:04.160Z,-9.23
2019-01-20T02:06:04.205Z,-9.20
2019-01-20T02:07:04.125Z,-9.28
2019-01-20T02:08:04.116Z,-9.23
2019-01-20T02:09:04.107Z,-9.28
2019-01-20T02:10:04.116Z,-9.31
2019-01-20T02:11:04.087Z,-9.26
2019-01-20T02:12:04.160Z,-9.28
2019-01-20T02:13:04.126Z,-9.30
2019-01-20T02:14:04.047Z,-9.31
2019-01-20T02:15:04.058Z,-9.30
2019-01-20T02:16:04.038Z,-9.34
2019-01-20T02:17:04.098Z,-9.31
2019-01-20T02:18:03.998Z,-9.31
2019-01-20T02:19:04.029Z,-9.34
2019-01-20T02:20:03.979Z,-9.38
2019-01-20T02:21:04.009Z,-9.39
2019-01-20T02:22:03.962Z,-9.35
2019-01-20T02:23:04.000Z,-9.39
2019-01-20T02:24:03.940Z,-9.39
2019-01-20T02:25:04.050Z,-9.38
2019-01-20T02:26:03.945Z,-9.39
2019-01-20T02:27:03.982Z,-9.39
2019-01-20T02:28:03.904Z,-9.41
2019-01-20T02:29:03.892Z,-9.38
2019-01-20T02:30:03.983Z,-9.49
2019-01-20T02:31:03.882Z,-9.36
2019-01-20T02:32:03.914Z,-9.54
2019-01-20T02:33:03.853Z,-9.43
2019-01-20T02:34:03.833Z,-9.50
2019-01-20T02:35:03.823Z,-9.39
2019-01-20T02:36:03.944Z,-9.45
2019-01-20T02:37:03.804Z,-9.39
2019-01-20T02:38:03.824Z,-9.56
2019-01-20T02:39:03.785Z,-9.49
2019-01-20T02:40:03.855Z,-9.47
2019-01-20T02:41:03.797Z,-9.54
2019-01-20T02:42:03.795Z,-9.45
2019-01-20T02:43:03.737Z,-9.46
2019-01-20T02:44:04.845Z,-9.50
2019-01-20T02:45:03.726Z,-9.58
2019-01-20T02:46:03.770Z,-9.46
2019-01-20T02:47:03.697Z,-9.50
2019-01-20T02:48:03.800Z,-9.54
2019-01-20T02:49:03.667Z,-9.56
2019-01-20T02:50:03.658Z,-9.53
2019-01-20T02:51:03.650Z,-9.57
2019-01-20T02:52:03.710Z,-9.56
2019-01-20T02:53:03.617Z,-9.63
2019-01-20T02:54:03.698Z,-9.63
2019-01-20T02:55:03.598Z,-9.60
2019-01-20T02:56:03.639Z,-9.56
2019-01-20T02:57:03.592Z,-9.63
2019-01-20T02:58:03.680Z,-9.66
2019-01-20T02:59:03.570Z,-9.56
2019-01-20T03:00:03.551Z,-9.63
2019-01-20T03:01:03.543Z,-9.61
2019-01-20T03:02:03.601Z,-9.56
2019-01-20T03:03:03.520Z,-9.70
2019-01-20T03:04:03.593Z,-9.60
2019-01-20T03:05:03.503Z,-9.61
2019-01-20T03:06:03.492Z,-9.63
2019-01-20T03:07:03.492Z,-9.61
2019-01-20T03:08:03.575Z,-9.54
2019-01-20T03:09:03.463Z,-9.64
2019-01-20T03:10:03.502Z,-9.60
2019-01-20T03:11:03.462Z,-9.66
2019-01-20T03:12:03.873Z,-9.67
2019-01-20T03:13:03.495Z,-9.66
2019-01-20T03:14:03.404Z,-9.64
2019-01-20T03:15:03.434Z,-9.68
2019-01-20T03:16:03.375Z,-9.72
2019-01-20T03:17:03.406Z,-9.78
2019-01-20T03:18:03.355Z,-9.67
2019-01-20T03:19:03.395Z,-9.66
2019-01-20T03:20:03.331Z,-9.72
2019-01-20T03:21:03.335Z,-9.68
2019-01-20T03:22:03.327Z,-9.67
2019-01-20T03:23:03.366Z,-9.79
2019-01-20T03:24:03.287Z,-9.75
2019-01-20T03:25:03.307Z,-9.82
2019-01-20T03:26:03.268Z,-9.74
2019-01-20T03:27:03.278Z,-9.75
2019-01-20T03:28:03.248Z,-9.67
2019-01-20T03:29:03.288Z,-9.54
2019-01-20T03:30:03.251Z,-9.56
2019-01-20T03:31:03.321Z,-9.66
2019-01-20T03:32:03.340Z,-9.72
2019-01-20T03:33:03.201Z,-9.57
2019-01-20T03:34:03.230Z,-9.66
2019-01-20T03:35:03.180Z,-9.72
2019-01-20T03:36:03.260Z,-9.75
2019-01-20T03:37:03.270Z,-9.68
2019-01-20T03:38:03.144Z,-9.77
2019-01-20T03:39:03.161Z,-9.66
2019-01-20T03:40:03.122Z,-9.66
2019-01-20T03:41:03.191Z,-9.75
2019-01-20T03:42:03.114Z,-9.75
2019-01-20T03:43:03.137Z,-9.81
2019-01-20T03:44:03.083Z,-9.78
2019-01-20T03:45:03.163Z,-9.78
2019-01-20T03:46:03.054Z,-9.77
2019-01-20T03:47:03.144Z,-9.72
2019-01-20T03:48:03.093Z,-9.77
2019-01-20T03:49:03.034Z,-9.81
2019-01-20T03:50:03.005Z,-9.77
2019-01-20T03:51:03.135Z,-9.72
2019-01-20T03:52:02.994Z,-9.77
2019-01-20T03:53:02.975Z,-9.77
2019-01-20T03:54:03.075Z,-9.78
2019-01-20T03:55:02.945Z,-9.77
2019-01-20T03:56:03.007Z,-9.75
2019-01-20T03:57:02.966Z,-9.82
2019-01-20T03:58:02.917Z,-9.82
2019-01-20T03:59:02.906Z,-9.84
2019-01-20T04:00:02.987Z,-9.88
2019-01-20T04:01:02.898Z,-9.79
2019-01-20T04:02:02.980Z,-9.79
2019-01-20T04:03:02.892Z,-9.77
2019-01-20T04:04:02.848Z,-9.79
2019-01-20T04:05:02.938Z,-9.78
2019-01-20T04:06:02.840Z,-9.84
2019-01-20T04:07:02.909Z,-9.82
2019-01-20T04:08:02.833Z,-9.85
2019-01-20T04:09:02.899Z,-9.82
2019-01-20T04:10:02.793Z,-9.82
2019-01-20T04:11:02.831Z,-9.92
2019-01-20T04:12:02.791Z,-9.81
2019-01-20T04:13:02.877Z,-9.85
2019-01-20T04:14:02.751Z,-9.87
2019-01-20T04:15:02.801Z,-9.88
2019-01-20T04:16:02.732Z,-9.90
2019-01-20T04:17:02.783Z,-9.87
2019-01-20T04:18:02.710Z,-9.85
2019-01-20T04:19:02.692Z,-9.99
2019-01-20T04:20:02.742Z,-9.90
2019-01-20T04:21:02.663Z,-9.90
2019-01-20T04:22:02.713Z,-9.97
2019-01-20T04:23:02.643Z,-9.92
2019-01-20T04:24:02.644Z,-9.92
2019-01-20T04:25:02.625Z,-9.95
2019-01-20T04:26:02.651Z,-9.93
2019-01-20T04:27:02.615Z,-9.93
2019-01-20T04:28:02.674Z,-9.97
2019-01-20T04:29:02.577Z,-10.03
2019-01-20T04:30:02.616Z,-10.00
2019-01-20T04:31:02.567Z,-9.96
2019-01-20T04:32:02.607Z,-10.00
2019-01-20T04:33:02.547Z,-9.95
2019-01-20T04:34:02.597Z,-9.93
2019-01-20T04:35:02.561Z,-9.99
2019-01-20T04:36:02.519Z,-9.99
2019-01-20T04:37:02.548Z,-9.97
2019-01-20T04:38:02.488Z,-10.00
2019-01-20T04:39:02.539Z,-9.99
2019-01-20T04:40:02.501Z,-9.97
2019-01-20T04:41:02.458Z,-10.00
2019-01-20T04:42:02.489Z,-10.03
2019-01-20T04:43:02.439Z,-10.05
2019-01-20T04:44:02.470Z,-9.99
2019-01-20T04:45:02.411Z,-10.05
2019-01-20T04:46:02.511Z,-10.02
2019-01-20T04:47:02.420Z,-10.11
2019-01-20T04:48:02.440Z,-10.10
2019-01-20T04:49:02.422Z,-10.11
2019-01-20T04:50:02.381Z,-10.11
2019-01-20T04:51:02.342Z,-10.05
2019-01-20T04:52:02.411Z,-10.14
2019-01-20T04:53:02.332Z,-10.10
2019-01-20T04:54:02.353Z,-10.08
2019-01-20T04:55:02.304Z,-10.16
2019-01-20T04:56:02.282Z,-10.10
2019-01-20T04:57:02.356Z,-10.13
2019-01-20T04:58:02.273Z,-10.16
2019-01-20T04:59:02.283Z,-10.11
2019-01-20T05:00:02.244Z,-10.16
2019-01-20T05:01:02.225Z,-10.14
2019-01-20T05:02:02.224Z,-10.13
2019-01-20T05:03:02.315Z,-10.06
2019-01-20T05:04:02.205Z,-10.10
2019-01-20T05:05:02.295Z,-10.14
2019-01-20T05:06:02.265Z,-10.11
2019-01-20T05:07:02.177Z,-10.11
2019-01-20T05:08:02.257Z,-10.16
2019-01-20T05:09:02.146Z,-10.11
2019-01-20T05:10:02.237Z,-10.14
2019-01-20T05:11:02.127Z,-10.11
2019-01-20T05:12:02.168Z,-10.11
2019-01-20T05:13:02.137Z,-10.18
2019-01-20T05:14:02.208Z,-10.13
2019-01-20T05:15:02.096Z,-10.28
2019-01-20T05:16:02.138Z,-10.18
2019-01-20T05:17:02.061Z,-10.13
2019-01-20T05:18:02.128Z,-10.18
2019-01-20T05:19:02.029Z,-10.20
2019-01-20T05:20:02.113Z,-10.16
2019-01-20T05:21:02.009Z,-10.23
2019-01-20T05:22:01.999Z,-10.23
2019-01-20T05:23:02.000Z,-10.18
2019-01-20T05:24:02.080Z,-10.23
2019-01-20T05:25:01.962Z,-10.14
2019-01-20T05:26:02.022Z,-10.16
2019-01-20T05:27:01.952Z,-10.20
2019-01-20T05:28:02.002Z,-10.18
2019-01-20T05:29:01.921Z,-10.18
2019-01-20T05:30:01.983Z,-10.14
2019-01-20T05:31:01.902Z,-10.17
2019-01-20T05:32:01.902Z,-10.23
2019-01-20T05:33:01.903Z,-10.18
2019-01-20T05:34:01.974Z,-10.28
2019-01-20T05:35:01.866Z,-10.18
2019-01-20T05:36:01.904Z,-10.34
2019-01-20T05:37:01.844Z,-10.26
2019-01-20T05:38:01.845Z,-10.29
2019-01-20T05:39:01.904Z,-10.28
2019-01-20T05:40:01.815Z,-10.21
2019-01-20T05:41:01.835Z,-10.18
2019-01-20T05:42:01.790Z,-10.21
2019-01-20T05:43:01.796Z,-10.32
2019-01-20T05:44:01.846Z,-10.31
2019-01-20T05:45:01.759Z,-10.35
2019-01-20T05:46:01.777Z,-10.38
2019-01-20T05:47:01.736Z,-10.31
2019-01-20T05:48:01.737Z,-10.35
2019-01-20T05:49:01.717Z,-10.35
2019-01-20T05:50:01.748Z,-10.39
2019-01-20T05:51:01.677Z,-10.39
2019-01-20T05:52:01.789Z,-10.35
2019-01-20T05:53:01.687Z,-10.41
2019-01-20T05:54:01.648Z,-10.47
2019-01-20T05:55:01.678Z,-10.52
2019-01-20T05:56:02.116Z,-10.47
2019-01-20T05:57:01.720Z,-10.50
2019-01-20T05:58:01.628Z,-10.50
2019-01-20T05:59:01.654Z,-10.55
2019-01-20T06:00:01.581Z,-10.47
2019-01-20T06:01:01.600Z,-10.46
2019-01-20T06:02:01.563Z,-10.44
2019-01-20T06:03:01.681Z,-10.44
2019-01-20T06:04:01.551Z,-10.47
2019-01-20T06:05:01.588Z,-10.50
2019-01-20T06:06:01.532Z,-10.42
2019-01-20T06:07:01.602Z,-10.50
2019-01-20T06:08:01.523Z,-10.52
2019-01-20T06:09:01.492Z,-10.44
2019-01-20T06:10:01.572Z,-10.37
2019-01-20T06:11:01.474Z,-10.41
2019-01-20T06:12:01.544Z,-10.47
2019-01-20T06:13:01.466Z,-10.47
2019-01-20T06:14:01.444Z,-10.49
2019-01-20T06:15:01.427Z,-10.49
2019-01-20T06:16:01.518Z,-10.57
2019-01-20T06:17:01.410Z,-10.55
2019-01-20T06:18:01.495Z,-10.49
2019-01-20T06:19:01.418Z,-10.52
2019-01-20T06:20:01.376Z,-10.55
2019-01-20T06:21:01.465Z,-10.55
2019-01-20T06:22:01.345Z,-10.49
2019-01-20T06:23:01.436Z,-10.46
2019-01-20T06:24:01.319Z,-10.46
2019-01-20T06:25:01.418Z,-10.53
2019-01-20T06:26:01.310Z,-10.52
2019-01-20T06:27:01.378Z,-10.46
2019-01-20T06:28:01.297Z,-10.49
2019-01-20T06:29:01.287Z,-10.49
2019-01-20T06:30:01.261Z,-10.56
2019-01-20T06:31:01.339Z,-10.63
2019-01-20T06:32:01.229Z,-10.63
2019-01-20T06:33:01.309Z,-10.62
2019-01-20T06:34:01.219Z,-10.62
2019-01-20T06:35:01.222Z,-10.55
2019-01-20T06:36:01.200Z,-10.59
2019-01-20T06:37:01.246Z,-10.57
2019-01-20T06:38:01.190Z,-10.63
2019-01-20T06:39:01.281Z,-10.62
2019-01-20T06:40:01.241Z,-10.63
2019-01-20T06:41:01.141Z,-10.59
2019-01-20T06:42:01.175Z,-10.73
2019-01-20T06:43:02.250Z,-10.66
2019-01-20T06:44:01.213Z,-10.73
2019-01-20T06:45:01.182Z,-10.59
2019-01-20T06:46:01.094Z,-10.59
2019-01-20T06:47:01.234Z,-10.60
2019-01-20T06:48:01.083Z,-10.62
2019-01-20T06:49:01.145Z,-10.66
2019-01-20T06:50:01.116Z,-10.63
2019-01-20T06:51:01.023Z,-10.62
2019-01-20T06:52:01.055Z,-10.66
2019-01-20T06:53:01.035Z,-10.63
2019-01-20T06:54:01.085Z,-10.62
2019-01-20T06:55:01.054Z,-10.71
2019-01-20T06:56:00.975Z,-10.63
2019-01-20T06:57:00.987Z,-10.66
2019-01-20T06:58:00.948Z,-10.60
2019-01-20T06:59:00.966Z,-10.60
2019-01-20T07:00:00.929Z,-10.62
2019-01-20T07:01:00.959Z,-10.67
2019-01-20T07:02:00.907Z,-10.63
2019-01-20T07:03:01.007Z,-10.67
2019-01-20T07:04:00.909Z,-10.59
2019-01-20T07:05:00.939Z,-10.63
2019-01-20T07:06:00.869Z,-10.66
2019-01-20T07:07:00.868Z,-10.60
2019-01-20T07:08:00.850Z,-10.63
2019-01-20T07:09:00.959Z,-10.62
2019-01-20T07:10:00.829Z,-10.59
2019-01-20T07:11:00.819Z,-10.60
2019-01-20T07:12:00.910Z,-10.66
2019-01-20T07:13:00.800Z,-10.70
2019-01-20T07:14:00.890Z,-10.59
2019-01-20T07:15:00.843Z,-10.57
2019-01-20T07:16:00.761Z,-10.60
2019-01-20T07:17:00.852Z,-10.57
2019-01-20T07:18:00.741Z,-10.59
2019-01-20T07:19:00.823Z,-10.68
2019-01-20T07:20:00.712Z,-10.59
2019-01-20T07:21:00.705Z,-10.63
2019-01-20T07:22:00.792Z,-10.71
2019-01-20T07:23:00.673Z,-10.71
2019-01-20T07:24:00.762Z,-10.63
2019-01-20T07:25:00.653Z,-10.63
2019-01-20T07:26:00.643Z,-10.68
2019-01-20T07:27:00.724Z,-10.67
2019-01-20T07:28:00.623Z,-10.59
2019-01-20T07:29:00.704Z,-10.60
2019-01-20T07:30:00.615Z,-10.60
2019-01-20T07:31:00.585Z,-10.63
2019-01-20T07:32:00.585Z,-10.59
2019-01-20T07:33:00.635Z,-10.59
2019-01-20T07:34:00.585Z,-10.52
2019-01-20T07:35:00.576Z,-10.50
2019-01-20T07:36:00.635Z,-10.56
2019-01-20T07:37:00.536Z,-10.55
2019-01-20T07:38:00.576Z,-10.49
2019-01-20T07:39:00.527Z,-10.50
2019-01-20T07:40:00.508Z,-10.49
2019-01-20T07:41:00.488Z,-10.50
2019-01-20T07:42:00.547Z,-10.50
2019-01-20T07:43:00.468Z,-10.44
2019-01-20T07:44:00.529Z,-10.53
2019-01-20T07:45:00.449Z,-10.50
2019-01-20T07:46:00.518Z,-10.52
2019-01-20T07:47:00.428Z,-10.49
2019-01-20T07:48:00.450Z,-10.53
2019-01-20T07:49:00.409Z,-10.44
2019-01-20T07:50:00.493Z,-10.46
2019-01-20T07:51:00.434Z,-10.53
2019-01-20T07:52:00.360Z,-10.47
2019-01-20T07:53:00.390Z,-10.52
2019-01-20T07:54:00.351Z,-10.50
2019-01-20T07:55:00.445Z,-10.52
2019-01-20T07:56:00.322Z,-10.39
2019-01-20T07:57:00.301Z,-10.55
2019-01-20T07:58:00.323Z,-10.47
2019-01-20T07:59:00.303Z,-10.44
2019-01-20T08:00:00.362Z,-10.50
2019-01-20T08:01:00.263Z,-10.42
2019-01-20T08:02:00.255Z,-10.35
2019-01-20T08:03:00.263Z,-10.39
2019-01-20T08:04:00.256Z,-10.37
2019-01-20T08:05:00.304Z,-10.35
2019-01-20T08:06:00.216Z,-10.34
2019-01-20T08:07:00.205Z,-10.34
2019-01-20T08:08:00.204Z,-10.32
2019-01-20T08:09:00.195Z,-10.34
2019-01-20T08:10:00.277Z,-10.26
2019-01-20T08:11:00.166Z,-10.32
2019-01-20T08:12:00.156Z,-10.29
2019-01-20T08:13:00.137Z,-10.24
2019-01-20T08:14:00.167Z,-10.21
2019-01-20T08:15:00.174Z,-10.24
2019-01-20T08:16:00.146Z,-10.14
2019-01-20T08:17:00.121Z,-10.20
2019-01-20T08:18:00.088Z,-10.20
2019-01-20T08:19:01.127Z,-10.11
2019-01-20T08:20:00.093Z,-10.11
2019-01-20T08:21:00.089Z,-10.00
2019-01-20T08:22:00.040Z,-10.00
2019-01-20T08:23:00.119Z,-10.02
2019-01-20T08:24:00.040Z,-9.96
2019-01-20T08:25:00.093Z,-9.97
2019-01-20T08:25:59.990Z,-9.84
2019-01-20T08:27:00.090Z,-9.75
2019-01-20T08:27:59.982Z,-9.38
2019-01-20T08:29:00.090Z,-9.10
2019-01-20T08:29:59.940Z,-8.74
2019-01-20T08:30:59.960Z,-8.60
2019-01-20T08:31:59.921Z,-8.47
2019-01-20T08:32:59.912Z,-8.50
2019-01-20T08:34:00.038Z,-8.49
2019-01-20T08:34:59.891Z,-8.63
2019-01-20T08:35:59.922Z,-8.58
2019-01-20T08:36:59.873Z,-8.70
2019-01-20T08:37:59.949Z,-8.73
2019-01-20T08:38:59.965Z,-8.76
2019-01-20T08:39:59.847Z,-8.68
2019-01-20T08:40:59.845Z,-8.76
2019-01-20T08:41:59.825Z,-8.73
2019-01-20T08:42:59.817Z,-8.64
2019-01-20T08:43:59.894Z,-8.66
2019-01-20T08:44:59.796Z,-8.63
2019-01-20T08:45:59.886Z,-8.67
2019-01-20T08:46:59.766Z,-8.74
2019-01-20T08:47:59.758Z,-8.70
2019-01-20T08:48:59.838Z,-8.66
2019-01-20T08:49:59.736Z,-8.67
2019-01-20T08:50:59.727Z,-8.61
2019-01-20T08:51:59.717Z,-8.50
2019-01-20T08:52:59.689Z,-8.53
2019-01-20T08:53:59.698Z,-8.34
2019-01-20T08:54:59.757Z,-8.35
2019-01-20T08:55:59.659Z,-8.31
2019-01-20T08:56:59.731Z,-8.43
2019-01-20T08:57:59.639Z,-8.45
2019-01-20T08:58:59.679Z,-8.47
2019-01-20T09:00:00.701Z,-8.52
2019-01-20T09:00:59.622Z,-8.50
2019-01-20T09:01:59.601Z,-8.52
2019-01-20T09:02:59.700Z,-8.49
2019-01-20T09:03:59.581Z,-8.42
2019-01-20T09:04:59.583Z,-8.42
2019-01-20T09:05:59.552Z,-8.40
2019-01-20T09:06:59.611Z,-8.35
2019-01-20T09:08:00.108Z,-8.28
2019-01-20T09:08:59.553Z,-8.27
2019-01-20T09:09:59.532Z,-8.22
2019-01-20T09:10:59.584Z,-8.07
2019-01-20T09:11:59.493Z,-8.10
2019-01-20T09:12:59.514Z,-7.92
2019-01-20T09:13:59.585Z,-7.94
2019-01-20T09:14:59.484Z,-7.92
2019-01-20T09:15:59.524Z,-7.70
2019-01-20T09:16:59.444Z,-7.31
2019-01-20T09:17:59.455Z,-6.69
2019-01-20T09:18:59.427Z,-6.14
2019-01-20T09:20:00.529Z,-6.14
2019-01-20T09:20:59.396Z,-6.17
2019-01-20T09:21:59.426Z,-6.32
2019-01-20T09:22:59.377Z,-6.72
2019-01-20T09:23:59.466Z,-7.14
2019-01-20T09:24:59.367Z,-7.41
2019-01-20T09:25:59.398Z,-7.76
2019-01-20T09:26:59.339Z,-8.07
2019-01-20T09:27:59.437Z,-8.10
2019-01-20T09:28:59.309Z,-8.29
2019-01-20T09:29:59.358Z,-8.22
2019-01-20T09:30:59.339Z,-8.35
2019-01-20T09:31:59.268Z,-8.45
2019-01-20T09:32:59.379Z,-8.32
2019-01-20T09:33:59.249Z,-8.25
2019-01-20T09:34:59.249Z,-8.14
2019-01-20T09:35:59.241Z,-8.16
2019-01-20T09:36:59.211Z,-8.13
2019-01-20T09:37:59.311Z,-8.13
2019-01-20T09:38:59.193Z,-7.99
2019-01-20T09:39:59.191Z,-7.94
2019-01-20T09:40:59.181Z,-8.03
2019-01-20T09:41:59.172Z,-8.07
2019-01-20T09:42:59.164Z,-8.03
2019-01-20T09:43:59.227Z,-8.03
2019-01-20T09:44:59.153Z,-8.04
2019-01-20T09:45:59.152Z,-8.04
2019-01-20T09:46:59.115Z,-8.03
2019-01-20T09:47:59.193Z,-7.92
2019-01-20T09:48:59.095Z,-7.85
2019-01-20T09:49:59.118Z,-7.91
2019-01-20T09:50:59.925Z,-7.80
2019-01-20T09:51:59.164Z,-7.78
2019-01-20T09:52:59.036Z,-7.77
2019-01-20T09:54:00.748Z,-7.78
2019-01-20T09:54:59.447Z,-7.68
2019-01-20T09:55:59.016Z,-7.71
2019-01-20T09:56:59.096Z,-7.62
2019-01-20T09:57:58.997Z,-7.62
2019-01-20T09:58:59.038Z,-7.46
2019-01-20T09:59:58.978Z,-7.49
2019-01-20T10:00:59.068Z,-7.46
2019-01-20T10:01:58.938Z,-7.39
2019-01-20T10:02:59.008Z,-7.37
2019-01-20T10:03:59.031Z,-7.39
2019-01-20T10:04:59.117Z,-7.28
2019-01-20T10:05:58.901Z,-7.29
2019-01-20T10:06:58.980Z,-7.20
2019-01-20T10:07:58.880Z,-7.16
2019-01-20T10:08:58.910Z,-7.13
2019-01-20T10:09:58.875Z,-7.10
2019-01-20T10:10:58.841Z,-7.03
2019-01-20T10:11:58.921Z,-7.00
2019-01-20T10:12:58.833Z,-6.99
2019-01-20T10:13:58.852Z,-6.85
2019-01-20T10:14:58.822Z,-6.85
2019-01-20T10:15:58.802Z,-6.84
2019-01-20T10:16:58.868Z,-6.77
2019-01-20T10:17:58.882Z,-6.75
2019-01-20T10:18:58.804Z,-6.69
2019-01-20T10:19:58.775Z,-6.59
2019-01-20T10:20:58.744Z,-6.55
2019-01-20T10:21:58.734Z,-6.44
2019-01-20T10:22:58.764Z,-6.44
2019-01-20T10:23:58.715Z,-6.35
2019-01-20T10:24:58.756Z,-6.21
2019-01-20T10:25:59.107Z,-6.31
2019-01-20T10:26:58.675Z,-6.20
2019-01-20T10:27:58.707Z,-6.24
2019-01-20T10:28:58.657Z,-6.21
2019-01-20T10:29:58.696Z,-6.20
2019-01-20T10:30:58.626Z,-6.17
2019-01-20T10:31:59.697Z,-6.14
2019-01-20T10:32:58.618Z,-6.19
2019-01-20T10:33:58.608Z,-6.20
2019-01-20T10:34:58.598Z,-6.17
2019-01-20T10:35:58.649Z,-6.21
2019-01-20T10:36:58.559Z,-6.21
2019-01-20T10:37:58.578Z,-6.16
2019-01-20T10:38:58.541Z,-6.06
2019-01-20T10:39:58.572Z,-6.03
2019-01-20T10:40:58.520Z,-6.02
2019-01-20T10:41:58.511Z,-5.96
2019-01-20T10:42:58.520Z,-5.88
2019-01-20T10:44:02.338Z,-5.90
2019-01-20T10:44:58.601Z,-6.02
2019-01-20T10:45:58.462Z,-5.87
2019-01-20T10:46:58.468Z,-5.81
2019-01-20T10:47:58.462Z,-5.66
2019-01-20T10:48:59.452Z,-5.64
2019-01-20T10:49:58.443Z,-5.51
2019-01-20T10:50:58.463Z,-5.51
2019-01-20T10:51:58.437Z,-5.63
2019-01-20T10:52:58.394Z,-5.48
2019-01-20T10:53:58.476Z,-5.48
2019-01-20T10:54:58.386Z,-5.39
2019-01-20T10:55:58.404Z,-5.45
2019-01-20T10:56:58.356Z,-5.45
2019-01-20T10:57:58.455Z,-5.28
2019-01-20T10:58:58.326Z,-5.16
2019-01-20T10:59:58.426Z,-5.01
2019-01-20T11:00:58.305Z,-5.06
2019-01-20T11:01:58.307Z,-4.94
2019-01-20T11:02:58.328Z,-4.79
2019-01-20T11:03:58.347Z,-4.79
2019-01-20T11:04:58.298Z,-4.72
2019-01-20T11:05:58.278Z,-4.66
2019-01-20T11:06:58.228Z,-4.66
2019-01-20T11:07:58.241Z,-4.69
2019-01-20T11:08:58.291Z,-4.55
2019-01-20T11:09:58.199Z,-4.46
2019-01-20T11:10:58.259Z,-4.40
2019-01-20T11:11:58.190Z,-4.41
2019-01-20T11:12:58.181Z,-4.30
2019-01-20T11:13:58.161Z,-4.33
2019-01-20T11:14:58.190Z,-4.31
2019-01-20T11:15:58.142Z,-4.28
2019-01-20T11:16:58.242Z,-4.27
2019-01-20T11:17:58.112Z,-4.23
2019-01-20T11:18:58.112Z,-4.13
2019-01-20T11:19:58.131Z,-4.17
2019-01-20T11:20:58.102Z,-4.10
2019-01-20T11:21:58.173Z,-4.04
2019-01-20T11:22:58.063Z,-4.12
2019-01-20T11:23:58.055Z,-4.12
2019-01-20T11:24:58.074Z,-4.09
2019-01-20T11:25:58.055Z,-4.06
2019-01-20T11:26:58.115Z,-4.06
2019-01-20T11:27:58.014Z,-4.02
2019-01-20T11:28:58.011Z,-4.07
2019-01-20T11:29:57.997Z,-4.02
2019-01-20T11:30:58.025Z,-3.89
2019-01-20T11:31:57.965Z,-3.92
2019-01-20T11:32:59.036Z,-3.88
2019-01-20T11:33:57.947Z,-3.81
2019-01-20T11:34:58.006Z,-3.74
2019-01-20T11:35:57.941Z,-3.68
2019-01-20T11:36:57.995Z,-3.72
2019-01-20T11:37:57.907Z,-3.72
2019-01-20T11:38:57.923Z,-3.69
2019-01-20T11:39:57.878Z,-3.72
2019-01-20T11:40:57.890Z,-3.64
2019-01-20T11:41:57.853Z,-3.59
2019-01-20T11:42:57.888Z,-3.65
2019-01-20T11:43:57.849Z,-3.69
2019-01-20T11:44:57.891Z,-3.64
2019-01-20T11:45:57.810Z,-3.70
2019-01-20T11:46:57.862Z,-3.80
2019-01-20T11:47:57.824Z,-3.84
2019-01-20T11:48:57.813Z,-3.76
2019-01-20T11:49:57.762Z,-3.83
2019-01-20T11:50:57.883Z,-3.86
2019-01-20T11:51:57.742Z,-3.77
2019-01-20T11:52:57.764Z,-3.68
2019-01-20T11:53:57.722Z,-3.70
2019-01-20T11:54:57.823Z,-3.69
2019-01-20T11:55:57.726Z,-3.64
2019-01-20T11:56:57.744Z,-3.52
2019-01-20T11:57:57.684Z,-3.43
2019-01-20T11:58:57.798Z,-3.37
2019-01-20T11:59:57.666Z,-3.40
2019-01-20T12:00:57.665Z,-3.36
2019-01-20T12:01:57.707Z,-3.23
2019-01-20T12:02:57.670Z,-3.25
2019-01-20T12:03:57.736Z,-3.16
2019-01-20T12:04:57.607Z,-3.23
2019-01-20T12:05:57.628Z,-3.16
2019-01-20T12:06:57.589Z,-3.18
2019-01-20T12:07:57.590Z,-3.13
2019-01-20T12:08:57.568Z,-3.08
2019-01-20T12:09:57.629Z,-3.01
2019-01-20T12:10:57.549Z,-3.02
2019-01-20T12:11:57.619Z,-2.98
2019-01-20T12:12:57.520Z,-2.93
2019-01-20T12:13:57.598Z,-2.95
2019-01-20T12:14:57.501Z,-2.89
2019-01-20T12:15:57.531Z,-2.83
2019-01-20T12:16:57.490Z,-2.83
2019-01-20T12:17:57.590Z,-2.86
2019-01-20T12:18:57.452Z,-2.89
2019-01-20T12:19:57.502Z,-2.82
2019-01-20T12:20:57.434Z,-2.84
2019-01-20T12:21:57.432Z,-2.82
2019-01-20T12:22:57.502Z,-2.80
2019-01-20T12:23:57.393Z,-2.72
2019-01-20T12:24:57.445Z,-2.76
2019-01-20T12:25:57.376Z,-2.80
2019-01-20T12:26:57.771Z,-2.72
2019-01-20T12:27:57.376Z,-2.80
2019-01-20T12:28:57.415Z,-2.82
2019-01-20T12:29:57.325Z,-2.76
2019-01-20T12:30:57.344Z,-2.76
2019-01-20T12:31:57.368Z,-2.65
2019-01-20T12:32:57.306Z,-2.65
2019-01-20T12:33:57.806Z,-2.59
2019-01-20T12:34:57.286Z,-2.62
2019-01-20T12:35:57.296Z,-2.64
2019-01-20T12:36:57.308Z,-2.55
2019-01-20T12:37:57.247Z,-2.56
2019-01-20T12:38:58.520Z,-2.58
2019-01-20T12:39:57.463Z,-2.55
2019-01-20T12:40:57.228Z,-2.47
2019-01-20T12:41:57.219Z,-2.58
2019-01-20T12:42:57.490Z,-2.56
2019-01-20T12:43:57.189Z,-2.53
2019-01-20T12:44:57.200Z,-2.47